sensor_id;sensor_type;location;lat;lon;timestamp;temperature;humidity
4578;DHT22;2301;47.354;8.528;2022-11-23T00:02:18;11.40;77.20
4578;DHT22;2301;47.354;8.528;2022-11-23T00:04:45;11.40;78.50
4578;DHT22;2301;47.354;8.528;2022-11-23T00:07:12;11.30;77.50
4578;DHT22;2301;47.354;8.528;2022-11-23T00:09:39;11.40;78.20
4578;DHT22;2301;47.354;8.528;2022-11-23T00:12:06;11.40;79.20
4578;DHT22;2301;47.354;8.528;2022-11-23T00:14:33;11.40;77.50
4578;DHT22;2301;47.354;8.528;2022-11-23T00:17:01;11.30;75.30
4578;DHT22;2301;47.354;8.528;2022-11-23T00:19:28;11.30;76.70
4578;DHT22;2301;47.354;8.528;2022-11-23T00:21:55;11.30;77.60
4578;DHT22;2301;47.354;8.528;2022-11-23T00:24:22;11.40;79.20
4578;DHT22;2301;47.354;8.528;2022-11-23T00:26:49;11.40;79.20
4578;DHT22;2301;47.354;8.528;2022-11-23T00:29:16;11.40;78.00
4578;DHT22;2301;47.354;8.528;2022-11-23T00:31:42;11.40;77.60
4578;DHT22;2301;47.354;8.528;2022-11-23T00:34:11;11.40;78.70
4578;DHT22;2301;47.354;8.528;2022-11-23T00:36:38;11.40;77.50
4578;DHT22;2301;47.354;8.528;2022-11-23T00:39:05;11.50;78.60
4578;DHT22;2301;47.354;8.528;2022-11-23T00:41:32;11.50;79.00
4578;DHT22;2301;47.354;8.528;2022-11-23T00:43:58;11.50;77.50
4578;DHT22;2301;47.354;8.528;2022-11-23T00:46:26;11.40;76.80
4578;DHT22;2301;47.354;8.528;2022-11-23T00:48:55;11.40;77.10
4578;DHT22;2301;47.354;8.528;2022-11-23T00:51:25;11.40;76.00
4578;DHT22;2301;47.354;8.528;2022-11-23T00:53:52;11.30;75.20
4578;DHT22;2301;47.354;8.528;2022-11-23T00:56:20;11.30;76.00
4578;DHT22;2301;47.354;8.528;2022-11-23T00:58:47;11.30;77.60
4578;DHT22;2301;47.354;8.528;2022-11-23T01:01:16;11.20;76.00
4578;DHT22;2301;47.354;8.528;2022-11-23T01:03:45;11.20;76.00
4578;DHT22;2301;47.354;8.528;2022-11-23T01:06:13;11.20;76.50
4578;DHT22;2301;47.354;8.528;2022-11-23T01:08:42;11.10;78.10
4578;DHT22;2301;47.354;8.528;2022-11-23T01:11:13;11.20;78.30
4578;DHT22;2301;47.354;8.528;2022-11-23T01:13:40;11.10;76.70
4578;DHT22;2301;47.354;8.528;2022-11-23T01:16:09;11.00;77.20
4578;DHT22;2301;47.354;8.528;2022-11-23T01:18:38;11.00;78.10
4578;DHT22;2301;47.354;8.528;2022-11-23T01:21:05;11.00;78.20
4578;DHT22;2301;47.354;8.528;2022-11-23T01:23:32;11.00;78.00
4578;DHT22;2301;47.354;8.528;2022-11-23T01:26:05;11.00;78.60
4578;DHT22;2301;47.354;8.528;2022-11-23T01:28:33;11.10;77.70
4578;DHT22;2301;47.354;8.528;2022-11-23T01:31:05;11.00;78.60
4578;DHT22;2301;47.354;8.528;2022-11-23T01:33:32;11.00;78.50
4578;DHT22;2301;47.354;8.528;2022-11-23T01:35:59;11.00;77.90
4578;DHT22;2301;47.354;8.528;2022-11-23T01:38:26;10.90;77.40
4578;DHT22;2301;47.354;8.528;2022-11-23T01:40:53;10.90;77.70
4578;DHT22;2301;47.354;8.528;2022-11-23T01:43:21;10.90;78.50
4578;DHT22;2301;47.354;8.528;2022-11-23T01:45:57;10.90;78.10
4578;DHT22;2301;47.354;8.528;2022-11-23T01:48:27;10.90;79.20
4578;DHT22;2301;47.354;8.528;2022-11-23T01:50:58;10.90;79.00
4578;DHT22;2301;47.354;8.528;2022-11-23T01:53:27;10.90;78.80
4578;DHT22;2301;47.354;8.528;2022-11-23T01:55:58;10.90;78.90
4578;DHT22;2301;47.354;8.528;2022-11-23T01:58:29;10.90;79.00
4578;DHT22;2301;47.354;8.528;2022-11-23T02:00:57;10.90;78.40
4578;DHT22;2301;47.354;8.528;2022-11-23T02:03:25;10.90;78.40
4578;DHT22;2301;47.354;8.528;2022-11-23T02:05:55;10.80;77.90
4578;DHT22;2301;47.354;8.528;2022-11-23T02:08:27;10.80;78.20
4578;DHT22;2301;47.354;8.528;2022-11-23T02:10:56;10.80;78.40
4578;DHT22;2301;47.354;8.528;2022-11-23T02:13:26;10.80;79.20
4578;DHT22;2301;47.354;8.528;2022-11-23T02:15:55;10.80;79.00
4578;DHT22;2301;47.354;8.528;2022-11-23T02:18:25;10.70;78.60
4578;DHT22;2301;47.354;8.528;2022-11-23T02:20:53;10.70;77.50
4578;DHT22;2301;47.354;8.528;2022-11-23T02:23:29;10.70;79.20
4578;DHT22;2301;47.354;8.528;2022-11-23T02:26:02;10.70;80.00
4578;DHT22;2301;47.354;8.528;2022-11-23T02:28:35;10.80;79.90
4578;DHT22;2301;47.354;8.528;2022-11-23T02:31:02;10.80;80.00
4578;DHT22;2301;47.354;8.528;2022-11-23T02:33:29;10.70;79.50
4578;DHT22;2301;47.354;8.528;2022-11-23T02:35:58;10.70;79.50
4578;DHT22;2301;47.354;8.528;2022-11-23T02:38:27;10.70;79.70
4578;DHT22;2301;47.354;8.528;2022-11-23T02:40:54;10.70;79.60
4578;DHT22;2301;47.354;8.528;2022-11-23T02:43:23;10.70;78.60
4578;DHT22;2301;47.354;8.528;2022-11-23T02:45:53;10.70;79.70
4578;DHT22;2301;47.354;8.528;2022-11-23T02:48:20;10.70;79.10
4578;DHT22;2301;47.354;8.528;2022-11-23T02:50:47;10.60;78.60
4578;DHT22;2301;47.354;8.528;2022-11-23T02:53:14;10.60;79.50
4578;DHT22;2301;47.354;8.528;2022-11-23T02:55:41;10.60;79.30
4578;DHT22;2301;47.354;8.528;2022-11-23T02:58:09;10.60;79.80
4578;DHT22;2301;47.354;8.528;2022-11-23T03:00:37;10.60;79.60
4578;DHT22;2301;47.354;8.528;2022-11-23T03:03:05;10.60;80.00
4578;DHT22;2301;47.354;8.528;2022-11-23T03:05:32;10.60;79.80
4578;DHT22;2301;47.354;8.528;2022-11-23T03:07:59;10.50;79.50
4578;DHT22;2301;47.354;8.528;2022-11-23T03:10:26;10.60;80.30
4578;DHT22;2301;47.354;8.528;2022-11-23T03:12:54;10.60;80.70
4578;DHT22;2301;47.354;8.528;2022-11-23T03:15:21;10.60;80.30
4578;DHT22;2301;47.354;8.528;2022-11-23T03:17:49;10.60;79.40
4578;DHT22;2301;47.354;8.528;2022-11-23T03:20:16;10.60;80.10
4578;DHT22;2301;47.354;8.528;2022-11-23T03:22:44;10.60;80.50
4578;DHT22;2301;47.354;8.528;2022-11-23T03:25:11;10.60;81.00
4578;DHT22;2301;47.354;8.528;2022-11-23T03:27:38;10.60;80.20
4578;DHT22;2301;47.354;8.528;2022-11-23T03:30:06;10.60;80.50
4578;DHT22;2301;47.354;8.528;2022-11-23T03:32:33;10.60;80.50
4578;DHT22;2301;47.354;8.528;2022-11-23T03:35:03;10.50;79.70
4578;DHT22;2301;47.354;8.528;2022-11-23T03:37:30;10.50;79.10
4578;DHT22;2301;47.354;8.528;2022-11-23T03:39:57;10.50;80.50
4578;DHT22;2301;47.354;8.528;2022-11-23T03:42:24;10.50;80.20
4578;DHT22;2301;47.354;8.528;2022-11-23T03:44:50;10.50;80.10
4578;DHT22;2301;47.354;8.528;2022-11-23T03:47:17;10.50;80.00
4578;DHT22;2301;47.354;8.528;2022-11-23T03:49:44;10.50;80.50
4578;DHT22;2301;47.354;8.528;2022-11-23T03:52:13;10.50;80.30
4578;DHT22;2301;47.354;8.528;2022-11-23T03:54:39;10.60;80.40
4578;DHT22;2301;47.354;8.528;2022-11-23T03:57:06;10.60;80.00
4578;DHT22;2301;47.354;8.528;2022-11-23T03:59:33;10.50;79.90
4578;DHT22;2301;47.354;8.528;2022-11-23T04:02:00;10.50;79.70
4578;DHT22;2301;47.354;8.528;2022-11-23T04:04:27;10.60;80.40
4578;DHT22;2301;47.354;8.528;2022-11-23T04:06:54;10.60;80.40
4578;DHT22;2301;47.354;8.528;2022-11-23T04:09:22;10.60;80.10
4578;DHT22;2301;47.354;8.528;2022-11-23T04:11:49;10.60;80.20
4578;DHT22;2301;47.354;8.528;2022-11-23T04:14:16;10.60;80.40
4578;DHT22;2301;47.354;8.528;2022-11-23T04:16:43;10.60;80.50
4578;DHT22;2301;47.354;8.528;2022-11-23T04:19:10;10.60;80.40
4578;DHT22;2301;47.354;8.528;2022-11-23T04:21:37;10.50;80.10
4578;DHT22;2301;47.354;8.528;2022-11-23T04:24:04;10.50;80.10
4578;DHT22;2301;47.354;8.528;2022-11-23T04:26:32;10.50;80.00
4578;DHT22;2301;47.354;8.528;2022-11-23T04:28:59;10.40;80.20
4578;DHT22;2301;47.354;8.528;2022-11-23T04:31:26;10.40;80.40
4578;DHT22;2301;47.354;8.528;2022-11-23T04:33:54;10.40;80.30
4578;DHT22;2301;47.354;8.528;2022-11-23T04:36:21;10.40;80.50
4578;DHT22;2301;47.354;8.528;2022-11-23T04:38:48;10.40;80.50
4578;DHT22;2301;47.354;8.528;2022-11-23T04:41:15;10.40;80.70
4578;DHT22;2301;47.354;8.528;2022-11-23T04:43:43;10.40;80.60
4578;DHT22;2301;47.354;8.528;2022-11-23T04:46:11;10.30;80.20
4578;DHT22;2301;47.354;8.528;2022-11-23T04:48:37;10.30;79.70
4578;DHT22;2301;47.354;8.528;2022-11-23T04:51:05;10.20;79.70
4578;DHT22;2301;47.354;8.528;2022-11-23T04:53:32;10.10;80.10
4578;DHT22;2301;47.354;8.528;2022-11-23T04:55:59;10.10;80.60
4578;DHT22;2301;47.354;8.528;2022-11-23T04:58:25;10.00;80.50
4578;DHT22;2301;47.354;8.528;2022-11-23T05:00:54;10.00;80.40
4578;DHT22;2301;47.354;8.528;2022-11-23T05:03:21;9.90;81.90
4578;DHT22;2301;47.354;8.528;2022-11-23T05:05:47;9.90;81.60
4578;DHT22;2301;47.354;8.528;2022-11-23T05:08:16;9.80;81.90
4578;DHT22;2301;47.354;8.528;2022-11-23T05:10:43;9.80;82.00
4578;DHT22;2301;47.354;8.528;2022-11-23T05:13:09;9.80;83.30
4578;DHT22;2301;47.354;8.528;2022-11-23T05:15:36;9.80;82.80
4578;DHT22;2301;47.354;8.528;2022-11-23T05:18:06;9.80;82.80
4578;DHT22;2301;47.354;8.528;2022-11-23T05:20:33;9.80;82.70
4578;DHT22;2301;47.354;8.528;2022-11-23T05:23:00;9.80;82.70
4578;DHT22;2301;47.354;8.528;2022-11-23T05:25:27;9.80;82.90
4578;DHT22;2301;47.354;8.528;2022-11-23T05:27:54;9.80;83.30
4578;DHT22;2301;47.354;8.528;2022-11-23T05:30:21;9.90;83.60
4578;DHT22;2301;47.354;8.528;2022-11-23T05:32:48;9.90;83.90
4578;DHT22;2301;47.354;8.528;2022-11-23T05:35:17;9.90;83.80
4578;DHT22;2301;47.354;8.528;2022-11-23T05:37:43;9.90;83.90
4578;DHT22;2301;47.354;8.528;2022-11-23T05:40:11;9.90;83.70
4578;DHT22;2301;47.354;8.528;2022-11-23T05:42:38;9.90;83.60
4578;DHT22;2301;47.354;8.528;2022-11-23T05:45:05;9.90;83.20
4578;DHT22;2301;47.354;8.528;2022-11-23T05:47:32;9.80;83.10
4578;DHT22;2301;47.354;8.528;2022-11-23T05:49:59;9.70;82.90
4578;DHT22;2301;47.354;8.528;2022-11-23T05:52:27;9.70;83.20
4578;DHT22;2301;47.354;8.528;2022-11-23T05:54:54;9.80;84.40
4578;DHT22;2301;47.354;8.528;2022-11-23T05:57:21;9.70;82.10
4578;DHT22;2301;47.354;8.528;2022-11-23T05:59:48;9.50;78.40
4578;DHT22;2301;47.354;8.528;2022-11-23T06:02:15;9.30;76.60
4578;DHT22;2301;47.354;8.528;2022-11-23T06:04:43;9.00;75.60
4578;DHT22;2301;47.354;8.528;2022-11-23T06:07:09;8.80;75.50
4578;DHT22;2301;47.354;8.528;2022-11-23T06:09:38;8.60;75.30
4578;DHT22;2301;47.354;8.528;2022-11-23T06:12:05;8.40;75.30
4578;DHT22;2301;47.354;8.528;2022-11-23T06:14:32;8.30;75.40
4578;DHT22;2301;47.354;8.528;2022-11-23T06:16:59;8.10;75.50
4578;DHT22;2301;47.354;8.528;2022-11-23T06:19:26;7.90;75.80
4578;DHT22;2301;47.354;8.528;2022-11-23T06:21:54;7.80;76.10
4578;DHT22;2301;47.354;8.528;2022-11-23T06:24:21;7.70;76.30
4578;DHT22;2301;47.354;8.528;2022-11-23T06:26:50;7.60;76.40
4578;DHT22;2301;47.354;8.528;2022-11-23T06:29:17;7.50;76.40
4578;DHT22;2301;47.354;8.528;2022-11-23T06:31:44;7.40;76.50
4578;DHT22;2301;47.354;8.528;2022-11-23T06:34:11;7.40;76.90
4578;DHT22;2301;47.354;8.528;2022-11-23T06:36:38;7.40;77.20
4578;DHT22;2301;47.354;8.528;2022-11-23T06:39:05;7.30;77.30
4578;DHT22;2301;47.354;8.528;2022-11-23T06:41:32;7.20;77.40
4578;DHT22;2301;47.354;8.528;2022-11-23T06:44:00;7.10;78.20
4578;DHT22;2301;47.354;8.528;2022-11-23T06:46:27;7.00;77.60
4578;DHT22;2301;47.354;8.528;2022-11-23T06:48:54;7.00;77.70
4578;DHT22;2301;47.354;8.528;2022-11-23T06:51:21;6.90;77.80
4578;DHT22;2301;47.354;8.528;2022-11-23T06:53:48;6.90;78.00
4578;DHT22;2301;47.354;8.528;2022-11-23T06:56:15;6.80;78.10
4578;DHT22;2301;47.354;8.528;2022-11-23T06:58:42;6.80;78.40
4578;DHT22;2301;47.354;8.528;2022-11-23T07:01:11;6.80;78.60
4578;DHT22;2301;47.354;8.528;2022-11-23T07:03:37;6.80;78.90
4578;DHT22;2301;47.354;8.528;2022-11-23T07:06:06;6.70;78.90
4578;DHT22;2301;47.354;8.528;2022-11-23T07:08:35;6.70;79.10
4578;DHT22;2301;47.354;8.528;2022-11-23T07:11:04;6.70;79.60
4578;DHT22;2301;47.354;8.528;2022-11-23T07:13:32;7.00;88.60
4578;DHT22;2301;47.354;8.528;2022-11-23T07:15:59;7.00;85.00
4578;DHT22;2301;47.354;8.528;2022-11-23T07:18:27;7.00;82.90
4578;DHT22;2301;47.354;8.528;2022-11-23T07:20:56;6.90;81.80
4578;DHT22;2301;47.354;8.528;2022-11-23T07:23:24;6.90;81.30
4578;DHT22;2301;47.354;8.528;2022-11-23T07:25:51;6.80;81.00
4578;DHT22;2301;47.354;8.528;2022-11-23T07:28:18;6.80;80.90
4578;DHT22;2301;47.354;8.528;2022-11-23T07:30:45;6.80;80.90
4578;DHT22;2301;47.354;8.528;2022-11-23T07:33:12;6.70;80.80
4578;DHT22;2301;47.354;8.528;2022-11-23T07:35:41;6.70;80.80
4578;DHT22;2301;47.354;8.528;2022-11-23T07:38:08;6.70;80.80
4578;DHT22;2301;47.354;8.528;2022-11-23T07:40:35;6.70;80.70
4578;DHT22;2301;47.354;8.528;2022-11-23T07:43:04;6.60;80.80
4578;DHT22;2301;47.354;8.528;2022-11-23T07:45:31;6.60;81.10
4578;DHT22;2301;47.354;8.528;2022-11-23T07:47:59;6.60;81.30
4578;DHT22;2301;47.354;8.528;2022-11-23T07:50:27;6.60;81.40
4578;DHT22;2301;47.354;8.528;2022-11-23T07:52:55;6.60;82.40
4578;DHT22;2301;47.354;8.528;2022-11-23T07:55:22;6.60;81.90
4578;DHT22;2301;47.354;8.528;2022-11-23T07:57:51;6.60;82.10
4578;DHT22;2301;47.354;8.528;2022-11-23T08:00:19;6.60;82.40
4578;DHT22;2301;47.354;8.528;2022-11-23T08:02:47;6.60;82.50
4578;DHT22;2301;47.354;8.528;2022-11-23T08:05:14;6.60;82.60
4578;DHT22;2301;47.354;8.528;2022-11-23T08:07:41;6.60;82.70
4578;DHT22;2301;47.354;8.528;2022-11-23T08:10:11;6.70;83.00
4578;DHT22;2301;47.354;8.528;2022-11-23T08:12:38;6.70;83.10
4578;DHT22;2301;47.354;8.528;2022-11-23T08:15:05;6.70;83.30
4578;DHT22;2301;47.354;8.528;2022-11-23T08:17:33;6.70;83.30
4578;DHT22;2301;47.354;8.528;2022-11-23T08:20:00;6.70;83.30
4578;DHT22;2301;47.354;8.528;2022-11-23T08:22:27;6.80;83.40
4578;DHT22;2301;47.354;8.528;2022-11-23T08:24:53;6.80;83.40
4578;DHT22;2301;47.354;8.528;2022-11-23T08:27:22;6.80;83.40
4578;DHT22;2301;47.354;8.528;2022-11-23T08:29:49;6.90;83.40
4578;DHT22;2301;47.354;8.528;2022-11-23T08:32:15;6.90;83.30
4578;DHT22;2301;47.354;8.528;2022-11-23T08:34:42;6.90;83.40
4578;DHT22;2301;47.354;8.528;2022-11-23T08:37:09;7.00;84.30
4578;DHT22;2301;47.354;8.528;2022-11-23T08:39:36;7.20;85.40
4578;DHT22;2301;47.354;8.528;2022-11-23T08:42:03;7.40;86.50
4578;DHT22;2301;47.354;8.528;2022-11-23T08:44:31;7.80;87.40
4578;DHT22;2301;47.354;8.528;2022-11-23T08:46:59;8.00;87.20
4578;DHT22;2301;47.354;8.528;2022-11-23T08:49:26;8.40;87.00
4578;DHT22;2301;47.354;8.528;2022-11-23T08:51:53;8.70;86.60
4578;DHT22;2301;47.354;8.528;2022-11-23T08:54:20;8.90;86.00
4578;DHT22;2301;47.354;8.528;2022-11-23T08:56:49;9.10;85.00
4578;DHT22;2301;47.354;8.528;2022-11-23T08:59:16;9.20;84.10
4578;DHT22;2301;47.354;8.528;2022-11-23T09:01:44;9.70;90.50
4578;DHT22;2301;47.354;8.528;2022-11-23T09:04:11;9.70;85.70
4578;DHT22;2301;47.354;8.528;2022-11-23T09:06:39;9.70;83.70
4578;DHT22;2301;47.354;8.528;2022-11-23T09:09:06;9.70;82.80
4578;DHT22;2301;47.354;8.528;2022-11-23T09:11:32;9.70;82.00
4578;DHT22;2301;47.354;8.528;2022-11-23T09:13:59;9.70;81.50
4578;DHT22;2301;47.354;8.528;2022-11-23T09:16:26;9.70;81.20
4578;DHT22;2301;47.354;8.528;2022-11-23T09:18:56;9.70;80.50
4578;DHT22;2301;47.354;8.528;2022-11-23T09:21:23;9.70;79.80
4578;DHT22;2301;47.354;8.528;2022-11-23T09:23:54;9.60;79.50
4578;DHT22;2301;47.354;8.528;2022-11-23T09:26:21;9.70;79.40
4578;DHT22;2301;47.354;8.528;2022-11-23T09:28:48;9.60;79.40
4578;DHT22;2301;47.354;8.528;2022-11-23T09:31:15;9.70;79.50
4578;DHT22;2301;47.354;8.528;2022-11-23T09:33:42;9.80;79.40
4578;DHT22;2301;47.354;8.528;2022-11-23T09:36:10;9.80;79.00
4578;DHT22;2301;47.354;8.528;2022-11-23T09:38:37;9.80;79.20
4578;DHT22;2301;47.354;8.528;2022-11-23T09:41:14;9.90;79.30
4578;DHT22;2301;47.354;8.528;2022-11-23T09:43:51;10.00;78.70
4578;DHT22;2301;47.354;8.528;2022-11-23T09:46:32;10.20;78.80
4578;DHT22;2301;47.354;8.528;2022-11-23T09:49:19;10.30;77.60
4578;DHT22;2301;47.354;8.528;2022-11-23T09:51:48;10.40;77.60
4578;DHT22;2301;47.354;8.528;2022-11-23T09:54:24;10.60;78.40
4578;DHT22;2301;47.354;8.528;2022-11-23T09:56:53;10.80;77.00
4578;DHT22;2301;47.354;8.528;2022-11-23T09:59:35;10.90;76.30
4578;DHT22;2301;47.354;8.528;2022-11-23T10:02:03;11.00;76.60
4578;DHT22;2301;47.354;8.528;2022-11-23T10:04:33;11.20;76.00
4578;DHT22;2301;47.354;8.528;2022-11-23T10:07:12;11.30;75.60
4578;DHT22;2301;47.354;8.528;2022-11-23T10:09:52;11.50;75.70
4578;DHT22;2301;47.354;8.528;2022-11-23T10:12:41;11.70;75.00
4578;DHT22;2301;47.354;8.528;2022-11-23T10:15:16;11.80;75.00
4578;DHT22;2301;47.354;8.528;2022-11-23T10:18:08;11.90;73.40
4578;DHT22;2301;47.354;8.528;2022-11-23T10:20:54;11.90;72.70
4578;DHT22;2301;47.354;8.528;2022-11-23T10:23:38;12.00;72.50
4578;DHT22;2301;47.354;8.528;2022-11-23T10:26:09;12.30;72.40
4578;DHT22;2301;47.354;8.528;2022-11-23T10:28:38;12.30;72.20
4578;DHT22;2301;47.354;8.528;2022-11-23T10:31:12;12.40;71.60
4578;DHT22;2301;47.354;8.528;2022-11-23T10:33:53;12.60;71.30
4578;DHT22;2301;47.354;8.528;2022-11-23T10:36:21;12.70;70.50
4578;DHT22;2301;47.354;8.528;2022-11-23T10:38:51;12.80;70.00
4578;DHT22;2301;47.354;8.528;2022-11-23T10:41:20;12.90;70.50
4578;DHT22;2301;47.354;8.528;2022-11-23T10:43:50;13.10;70.30
4578;DHT22;2301;47.354;8.528;2022-11-23T10:46:29;13.20;69.60
4578;DHT22;2301;47.354;8.528;2022-11-23T10:49:09;13.40;68.60
4578;DHT22;2301;47.354;8.528;2022-11-23T10:51:38;13.50;68.30
4578;DHT22;2301;47.354;8.528;2022-11-23T10:54:21;13.60;67.80
4578;DHT22;2301;47.354;8.528;2022-11-23T10:56:50;13.70;67.50
4578;DHT22;2301;47.354;8.528;2022-11-23T10:59:32;13.90;67.20
4578;DHT22;2301;47.354;8.528;2022-11-23T11:02:07;13.90;65.30
4578;DHT22;2301;47.354;8.528;2022-11-23T11:04:36;13.80;64.80
4578;DHT22;2301;47.354;8.528;2022-11-23T11:07:19;13.80;64.30
4578;DHT22;2301;47.354;8.528;2022-11-23T11:09:51;13.80;64.00
4578;DHT22;2301;47.354;8.528;2022-11-23T11:12:18;13.70;63.00
4578;DHT22;2301;47.354;8.528;2022-11-23T11:14:57;13.50;62.10
4578;DHT22;2301;47.354;8.528;2022-11-23T11:17:28;13.40;62.70
4578;DHT22;2301;47.354;8.528;2022-11-23T11:19:56;13.20;62.60
4578;DHT22;2301;47.354;8.528;2022-11-23T11:22:36;13.10;63.00
4578;DHT22;2301;47.354;8.528;2022-11-23T11:25:06;13.00;63.00
4578;DHT22;2301;47.354;8.528;2022-11-23T11:27:33;12.90;62.80
4578;DHT22;2301;47.354;8.528;2022-11-23T11:30:04;12.80;62.60
4578;DHT22;2301;47.354;8.528;2022-11-23T11:32:39;12.80;62.90
4578;DHT22;2301;47.354;8.528;2022-11-23T11:35:12;12.80;63.20
4578;DHT22;2301;47.354;8.528;2022-11-23T11:37:42;12.70;62.50
4578;DHT22;2301;47.354;8.528;2022-11-23T11:40:18;12.80;62.30
4578;DHT22;2301;47.354;8.528;2022-11-23T11:42:49;13.00;61.70
4578;DHT22;2301;47.354;8.528;2022-11-23T11:45:22;13.00;59.60
4578;DHT22;2301;47.354;8.528;2022-11-23T11:47:55;13.00;58.30
4578;DHT22;2301;47.354;8.528;2022-11-23T11:50:25;13.10;58.00
4578;DHT22;2301;47.354;8.528;2022-11-23T11:52:57;13.20;58.20
4578;DHT22;2301;47.354;8.528;2022-11-23T11:55:32;13.30;58.50
4578;DHT22;2301;47.354;8.528;2022-11-23T11:58:03;13.40;58.70
4578;DHT22;2301;47.354;8.528;2022-11-23T12:00:36;13.60;57.50
4578;DHT22;2301;47.354;8.528;2022-11-23T12:03:09;13.60;55.00
4578;DHT22;2301;47.354;8.528;2022-11-23T12:05:43;13.70;55.70
4578;DHT22;2301;47.354;8.528;2022-11-23T12:08:15;13.80;56.60
4578;DHT22;2301;47.354;8.528;2022-11-23T12:10:49;14.00;56.80
4578;DHT22;2301;47.354;8.528;2022-11-23T12:13:19;14.10;56.60
4578;DHT22;2301;47.354;8.528;2022-11-23T12:15:50;14.20;55.70
4578;DHT22;2301;47.354;8.528;2022-11-23T12:21:26;14.60;50.00
4578;DHT22;2301;47.354;8.528;2022-11-23T12:24:06;14.40;51.50
4578;DHT22;2301;47.354;8.528;2022-11-23T12:26:44;14.50;52.50
4578;DHT22;2301;47.354;8.528;2022-11-23T12:29:24;14.50;52.10
4578;DHT22;2301;47.354;8.528;2022-11-23T12:32:01;14.50;52.40
4578;DHT22;2301;47.354;8.528;2022-11-23T12:34:45;14.60;52.20
4578;DHT22;2301;47.354;8.528;2022-11-23T12:37:30;14.40;51.60
4578;DHT22;2301;47.354;8.528;2022-11-23T12:40:22;14.40;51.50
4578;DHT22;2301;47.354;8.528;2022-11-23T12:42:59;14.30;51.70
4578;DHT22;2301;47.354;8.528;2022-11-23T12:45:38;14.30;52.00
4578;DHT22;2301;47.354;8.528;2022-11-23T12:48:22;14.30;52.10
4578;DHT22;2301;47.354;8.528;2022-11-23T12:51:00;14.20;51.20
4578;DHT22;2301;47.354;8.528;2022-11-23T12:53:36;14.20;51.70
4578;DHT22;2301;47.354;8.528;2022-11-23T12:56:11;14.20;52.10
4578;DHT22;2301;47.354;8.528;2022-11-23T12:58:41;14.30;52.80
4578;DHT22;2301;47.354;8.528;2022-11-23T13:01:13;14.20;52.40
4578;DHT22;2301;47.354;8.528;2022-11-23T13:13:01;13.80;53.20
4578;DHT22;2301;47.354;8.528;2022-11-23T13:15:49;13.70;52.70
4578;DHT22;2301;47.354;8.528;2022-11-23T13:18:31;13.50;52.30
4578;DHT22;2301;47.354;8.528;2022-11-23T13:21:11;13.40;53.00
4578;DHT22;2301;47.354;8.528;2022-11-23T13:23:41;13.30;53.80
4578;DHT22;2301;47.354;8.528;2022-11-23T13:26:13;13.20;54.20
4578;DHT22;2301;47.354;8.528;2022-11-23T13:28:40;13.10;54.60
4578;DHT22;2301;47.354;8.528;2022-11-23T13:31:24;13.10;55.50
4578;DHT22;2301;47.354;8.528;2022-11-23T13:33:53;13.10;55.40
4578;DHT22;2301;47.354;8.528;2022-11-23T13:36:35;13.00;55.00
4578;DHT22;2301;47.354;8.528;2022-11-23T13:42:24;13.00;55.20
4578;DHT22;2301;47.354;8.528;2022-11-23T13:45:12;12.90;54.90
4578;DHT22;2301;47.354;8.528;2022-11-23T13:47:41;12.90;55.00
4578;DHT22;2301;47.354;8.528;2022-11-23T13:50:28;12.90;54.40
4578;DHT22;2301;47.354;8.528;2022-11-23T13:52:55;12.80;54.40
4578;DHT22;2301;47.354;8.528;2022-11-23T13:55:30;12.80;54.90
4578;DHT22;2301;47.354;8.528;2022-11-23T13:58:37;12.80;54.90
4578;DHT22;2301;47.354;8.528;2022-11-23T14:01:04;12.70;54.60
4578;DHT22;2301;47.354;8.528;2022-11-23T14:03:53;12.70;55.00
4578;DHT22;2301;47.354;8.528;2022-11-23T14:06:42;12.70;55.70
4578;DHT22;2301;47.354;8.528;2022-11-23T14:09:17;12.70;56.00
4578;DHT22;2301;47.354;8.528;2022-11-23T14:11:56;12.70;56.20
4578;DHT22;2301;47.354;8.528;2022-11-23T14:14:28;12.70;56.10
4578;DHT22;2301;47.354;8.528;2022-11-23T14:17:17;12.70;56.00
4578;DHT22;2301;47.354;8.528;2022-11-23T14:20:04;12.70;56.60
4578;DHT22;2301;47.354;8.528;2022-11-23T14:22:40;12.70;56.80
4578;DHT22;2301;47.354;8.528;2022-11-23T14:25:26;12.70;57.10
4578;DHT22;2301;47.354;8.528;2022-11-23T14:28:05;12.70;57.40
4578;DHT22;2301;47.354;8.528;2022-11-23T14:30:43;12.60;57.60
4578;DHT22;2301;47.354;8.528;2022-11-23T14:33:23;12.60;57.40
4578;DHT22;2301;47.354;8.528;2022-11-23T14:36:02;12.50;56.80
4578;DHT22;2301;47.354;8.528;2022-11-23T14:38:41;12.50;56.80
4578;DHT22;2301;47.354;8.528;2022-11-23T14:41:15;12.40;56.80
4578;DHT22;2301;47.354;8.528;2022-11-23T14:43:45;12.30;56.50
4578;DHT22;2301;47.354;8.528;2022-11-23T14:46:14;12.30;56.30
4578;DHT22;2301;47.354;8.528;2022-11-23T14:48:43;12.30;56.40
4578;DHT22;2301;47.354;8.528;2022-11-23T14:51:14;12.30;56.50
4578;DHT22;2301;47.354;8.528;2022-11-23T14:53:43;12.20;56.70
4578;DHT22;2301;47.354;8.528;2022-11-23T14:56:21;12.20;56.50
4578;DHT22;2301;47.354;8.528;2022-11-23T14:58:48;12.20;56.20
4578;DHT22;2301;47.354;8.528;2022-11-23T15:01:20;12.10;56.50
4578;DHT22;2301;47.354;8.528;2022-11-23T15:03:55;12.10;56.30
4578;DHT22;2301;47.354;8.528;2022-11-23T15:06:27;12.10;56.90
4578;DHT22;2301;47.354;8.528;2022-11-23T15:09:03;12.10;57.30
4578;DHT22;2301;47.354;8.528;2022-11-23T15:11:34;12.00;57.10
4578;DHT22;2301;47.354;8.528;2022-11-23T15:14:02;12.00;56.90
4578;DHT22;2301;47.354;8.528;2022-11-23T15:16:37;11.90;56.60
4578;DHT22;2301;47.354;8.528;2022-11-23T15:19:16;11.90;56.40
4578;DHT22;2301;47.354;8.528;2022-11-23T15:21:45;11.80;56.40
4578;DHT22;2301;47.354;8.528;2022-11-23T15:24:20;11.80;56.60
4578;DHT22;2301;47.354;8.528;2022-11-23T15:26:47;11.80;56.90
4578;DHT22;2301;47.354;8.528;2022-11-23T15:29:31;11.70;57.10
4578;DHT22;2301;47.354;8.528;2022-11-23T15:31:59;11.70;57.00
4578;DHT22;2301;47.354;8.528;2022-11-23T15:34:26;11.70;57.20
4578;DHT22;2301;47.354;8.528;2022-11-23T15:36:55;11.70;57.10
4578;DHT22;2301;47.354;8.528;2022-11-23T15:39:23;11.70;57.20
4578;DHT22;2301;47.354;8.528;2022-11-23T15:41:52;11.60;56.90
4578;DHT22;2301;47.354;8.528;2022-11-23T15:44:24;11.60;56.90
4578;DHT22;2301;47.354;8.528;2022-11-23T15:46:53;11.60;57.10
4578;DHT22;2301;47.354;8.528;2022-11-23T15:49:20;11.60;57.40
4578;DHT22;2301;47.354;8.528;2022-11-23T15:51:48;11.60;57.50
4578;DHT22;2301;47.354;8.528;2022-11-23T15:54:21;11.60;57.20
4578;DHT22;2301;47.354;8.528;2022-11-23T15:56:51;11.60;57.30
4578;DHT22;2301;47.354;8.528;2022-11-23T15:59:38;11.60;57.50
4578;DHT22;2301;47.354;8.528;2022-11-23T16:02:13;11.60;57.90
4578;DHT22;2301;47.354;8.528;2022-11-23T16:04:41;11.50;57.90
4578;DHT22;2301;47.354;8.528;2022-11-23T16:07:19;11.50;57.40
4578;DHT22;2301;47.354;8.528;2022-11-23T16:09:50;11.50;57.30
4578;DHT22;2301;47.354;8.528;2022-11-23T16:12:30;11.40;57.50
4578;DHT22;2301;47.354;8.528;2022-11-23T16:15:28;11.40;57.70
4578;DHT22;2301;47.354;8.528;2022-11-23T16:17:55;11.30;57.70
4578;DHT22;2301;47.354;8.528;2022-11-23T16:20:23;11.20;58.50
4578;DHT22;2301;47.354;8.528;2022-11-23T16:22:52;11.20;60.00
4578;DHT22;2301;47.354;8.528;2022-11-23T16:25:24;11.10;61.50
4578;DHT22;2301;47.354;8.528;2022-11-23T16:27:56;11.10;62.90
4578;DHT22;2301;47.354;8.528;2022-11-23T16:30:25;10.90;63.60
4578;DHT22;2301;47.354;8.528;2022-11-23T16:32:52;10.90;64.10
4578;DHT22;2301;47.354;8.528;2022-11-23T16:35:20;10.80;64.80
4578;DHT22;2301;47.354;8.528;2022-11-23T16:37:47;10.70;65.30
4578;DHT22;2301;47.354;8.528;2022-11-23T16:40:14;10.70;65.40
4578;DHT22;2301;47.354;8.528;2022-11-23T16:42:43;10.70;65.40
4578;DHT22;2301;47.354;8.528;2022-11-23T16:45:11;10.70;65.60